Social login voor leden:

1. METAR EBOS

METAR EBOS 290250Z 02022G33KT 9999 FEW025 05/M04 Q1030 NOSIG

2. TAF EBOS

TAF EBOS 290250Z 02022G33KT 9999 FEW025 05/M04 Q1030 NOSIG

3. NOTAMS EBOS

Klik hier voor een overzicht van de notams.

Deze pagina promoten

Noordzee Vliegclub - Nieuwpoortsesteenweg 947 8400 Oostende - Tel 059 30 04 79 - info@nzvc.be - 

 - Copyright 2020